Aérodrome de Condom - Valence-sur-Baïse

LFID · Gers, Occitanie, 法国

罗盘
风向 的 风向 320° Condom Valence Sur Baise Airport 11/29
风: 7 kt, 3 beaufort

6 kt

4 kt
改变
0 ft 1.000 2.000 3.000 4.000 5.000
OVC 600
METAR LFBA 091800Z AUTO 32007KT 6000 OVC006 08/07 Q1001 TEMPO 4000 BR OVC004

METAR Condom Valence Sur Baise Airport - LFID

Condom Valence Sur Baise Airport是,法国中的小机场。 该机场有一条跑道: 11/29. 该领域的国际民航组织标志是LFID.

这份报告是针对2022年12月9日 19:00, 当地时间在Agen-La Garenne Airport进行的。

机场观察

风向为320°,速度为7 kt。

可见度为6 km。

有乌云密布在600 ft的高度。 破损或更高的上限为600 ft。

温度为8 °C,阵风为4 °C。 露点为7 °C,相对湿度为93%。 海平面上的气压为1001 hPa (QNH)。

发展趋势

  • 暂时的

    可变方向的风很小或没有。 可见性变为4 km。 重大天气:薄雾。 乌云密布在400 ft的高度.

白天

今天,太阳从08:20升起,在17:20降落。 这适用于Condom Valence Sur Baise Airport,世界夏令时可能有所不同。 当地时间与世界标准时间之间的时差为+1 小时。 当前,没有夏令时有效。

公司介绍

我们没有关于这个机场的公司信息。

体会

到Vliegles.nl去找飞行课程,跳伞和其他飞行体验。 浏览页面,了解Condom Valence Sur Baise Airport附近所有可用的活动。 你也可以使用搜索功能来寻找你所在地附近的特定飞行课程、跳伞或其他飞行体验。

跑道

Id 标题 侧风 逆风 侧风 %
11/29 110°-290° 4 kt 6 kt 50 %

逆风成分最大的方向会被突出显示,并用于横风计算。 这并不一定意味着这个方向在使用。

乌云

600 ft OVC 乌云密布
400 ft OVC 暂时的 乌云密布

温度 & 天气

温度 8 °C
露点 7 °C
相对湿度 93%
风寒 4 °C
Kp-index 1 (0-9)

白天

日出
08:20 (12:52)
中午
12:49
日落
17:18

小工具

你想在你的网站上有一个关于Condom Valence Sur Baise Airport的当前航空天气(METAR)的小部件吗?

显示HTML代码

我们和第三方通过cookies跟踪您在我们网站上的互联网行为。如果你继续,我们认为你同意我们的饼干政策